createdAt,value
2019-04-13T00:01:02.261Z,2.40
2019-04-13T00:03:31.320Z,2.77
2019-04-13T00:06:09.673Z,2.50
2019-04-13T00:08:39.098Z,2.60
2019-04-13T00:11:13.947Z,3.00
2019-04-13T00:13:43.187Z,3.05
2019-04-13T00:16:12.110Z,2.93
2019-04-13T00:18:41.008Z,2.77
2019-04-13T00:21:10.082Z,2.63
2019-04-13T00:23:38.896Z,2.80
2019-04-13T00:26:07.812Z,2.90
2019-04-13T00:28:36.828Z,2.92
2019-04-13T00:31:05.960Z,3.43
2019-04-13T00:33:34.948Z,2.83
2019-04-13T00:36:04.207Z,2.97
2019-04-13T00:38:33.175Z,2.90
2019-04-13T00:41:02.067Z,3.13
2019-04-13T00:43:31.364Z,2.83
2019-04-13T00:46:00.676Z,3.20
2019-04-13T00:48:29.632Z,3.17
2019-04-13T00:50:58.535Z,2.90
2019-04-13T00:53:27.534Z,2.98
2019-04-13T00:55:56.375Z,3.10
2019-04-13T00:58:25.337Z,3.37
2019-04-13T01:00:54.360Z,2.90
2019-04-13T01:03:23.320Z,3.00
2019-04-13T01:05:52.566Z,3.50
2019-04-13T01:08:21.448Z,3.12
2019-04-13T01:10:50.754Z,3.10
2019-04-13T01:13:19.745Z,3.12
2019-04-13T01:15:48.778Z,3.40
2019-04-13T01:18:17.615Z,3.45
2019-04-13T01:20:46.559Z,3.60
2019-04-13T01:23:15.460Z,3.50
2019-04-13T01:25:44.699Z,3.58
2019-04-13T01:28:13.891Z,3.90
2019-04-13T01:30:42.904Z,3.90
2019-04-13T01:33:11.972Z,4.08
2019-04-13T01:35:41.298Z,4.30
2019-04-13T01:38:10.944Z,3.55
2019-04-13T01:40:40.695Z,4.10
2019-04-13T01:43:10.013Z,3.80
2019-04-13T01:45:39.128Z,4.03
2019-04-13T01:48:08.076Z,3.90
2019-04-13T01:50:36.919Z,4.03
2019-04-13T01:53:05.776Z,4.83
2019-04-13T01:55:34.790Z,4.37
2019-04-13T01:58:03.790Z,5.00
2019-04-13T02:00:42.095Z,4.90
2019-04-13T02:03:10.956Z,5.30
2019-04-13T02:05:48.646Z,5.73
2019-04-13T02:08:51.870Z,5.20
2019-04-13T02:11:33.967Z,5.65
2019-04-13T02:14:02.899Z,5.62
2019-04-13T02:16:31.963Z,5.30
2019-04-13T02:19:01.247Z,5.55
2019-04-13T02:21:30.355Z,6.20
2019-04-13T02:23:59.240Z,6.85
2019-04-13T02:26:28.854Z,6.07
2019-04-13T02:28:57.714Z,5.75
2019-04-13T02:31:27.014Z,6.27
2019-04-13T02:33:56.032Z,6.15
2019-04-13T02:36:24.827Z,6.80
2019-04-13T02:38:53.653Z,6.10
2019-04-13T02:41:22.700Z,6.73
2019-04-13T02:43:51.553Z,6.58
2019-04-13T02:46:20.473Z,6.10
2019-04-13T02:48:49.295Z,5.90
2019-04-13T02:51:18.255Z,6.27
2019-04-13T02:53:47.313Z,5.83
2019-04-13T02:56:16.340Z,6.75
2019-04-13T02:58:45.628Z,6.40
2019-04-13T03:01:14.632Z,6.50
2019-04-13T03:03:43.712Z,6.70
2019-04-13T03:06:13.128Z,7.37
2019-04-13T03:08:42.140Z,7.17
2019-04-13T03:11:11.458Z,6.47
2019-04-13T03:13:40.480Z,7.40
2019-04-13T03:16:21.755Z,7.05
2019-04-13T03:19:10.545Z,7.30
2019-04-13T03:21:39.868Z,7.50
2019-04-13T03:24:08.699Z,6.92
2019-04-13T03:26:37.667Z,7.60
2019-04-13T03:29:06.916Z,8.15
2019-04-13T03:31:36.332Z,7.93
2019-04-13T03:34:05.371Z,7.60
2019-04-13T03:36:34.299Z,7.65
2019-04-13T03:39:04.887Z,7.33
2019-04-13T03:41:33.937Z,6.87
2019-04-13T03:44:02.766Z,6.80
2019-04-13T03:46:31.947Z,8.07
2019-04-13T03:49:00.820Z,8.20
2019-04-13T03:51:29.741Z,7.57
2019-04-13T03:53:58.555Z,8.73
2019-04-13T03:56:27.495Z,7.35
2019-04-13T03:58:56.748Z,8.40
2019-04-13T04:01:26.000Z,7.43
2019-04-13T04:03:55.082Z,7.33
2019-04-13T04:06:24.310Z,8.20
2019-04-13T04:08:53.206Z,7.05
2019-04-13T04:11:22.624Z,7.17
2019-04-13T04:13:51.422Z,8.03
2019-04-13T04:16:20.835Z,7.77
2019-04-13T04:18:50.142Z,8.53
2019-04-13T04:21:19.150Z,7.70
2019-04-13T04:23:48.057Z,8.35
2019-04-13T04:26:17.773Z,8.77
2019-04-13T04:28:47.472Z,8.15
2019-04-13T04:31:16.450Z,7.90
2019-04-13T04:33:45.718Z,8.08
2019-04-13T04:36:23.701Z,8.13
2019-04-13T04:38:45.715Z,7.25
2019-04-13T04:41:14.755Z,8.10
2019-04-13T04:43:43.608Z,7.25
2019-04-13T04:46:12.696Z,7.50
2019-04-13T04:48:41.664Z,8.03
2019-04-13T04:51:11.565Z,7.73
2019-04-13T04:53:41.107Z,7.53
2019-04-13T04:56:09.900Z,7.13
2019-04-13T04:58:39.216Z,6.95
2019-04-13T05:01:08.093Z,6.80
2019-04-13T05:03:37.293Z,7.87
2019-04-13T05:06:06.687Z,6.83
2019-04-13T05:08:35.610Z,7.25
2019-04-13T05:11:04.543Z,7.50
2019-04-13T05:13:33.504Z,7.60
2019-04-13T05:16:02.412Z,7.17
2019-04-13T05:18:31.823Z,8.05
2019-04-13T05:21:00.589Z,6.73
2019-04-13T05:23:29.524Z,7.25
2019-04-13T05:25:58.448Z,6.83
2019-04-13T05:28:27.656Z,6.70
2019-04-13T05:30:56.620Z,7.00
2019-04-13T05:33:26.088Z,7.10
2019-04-13T05:35:54.955Z,6.73
2019-04-13T05:38:23.952Z,7.85
2019-04-13T05:40:53.250Z,6.97
2019-04-13T05:43:22.139Z,8.00
2019-04-13T05:45:51.093Z,7.50
2019-04-13T05:48:19.981Z,6.87
2019-04-13T05:50:48.864Z,6.37
2019-04-13T05:53:17.930Z,7.05
2019-04-13T05:55:46.885Z,7.77
2019-04-13T05:58:15.781Z,7.10
2019-04-13T06:00:45.272Z,7.43
2019-04-13T06:03:14.241Z,6.50
2019-04-13T06:05:43.217Z,6.67
2019-04-13T06:08:12.429Z,7.67
2019-04-13T06:10:41.371Z,6.97
2019-04-13T06:13:10.342Z,7.12
2019-04-13T06:15:39.267Z,6.87
2019-04-13T06:18:20.330Z,7.05
2019-04-13T06:20:39.862Z,7.03
2019-04-13T06:23:08.771Z,7.28
2019-04-13T06:25:37.672Z,7.13
2019-04-13T06:28:06.678Z,7.33
2019-04-13T06:31:03.640Z,6.20
2019-04-13T06:33:49.703Z,6.45
2019-04-13T06:36:18.743Z,7.17
2019-04-13T06:38:47.578Z,6.75
2019-04-13T06:41:16.718Z,7.03
2019-04-13T06:43:45.973Z,7.33
2019-04-13T06:46:15.152Z,6.33
2019-04-13T06:48:44.183Z,6.90
2019-04-13T06:51:13.132Z,6.27
2019-04-13T06:53:42.060Z,6.60
2019-04-13T06:56:10.951Z,6.10
2019-04-13T06:58:39.837Z,6.27
2019-04-13T07:01:09.467Z,6.07
2019-04-13T07:03:38.613Z,6.47
2019-04-13T07:06:07.718Z,5.83
2019-04-13T07:08:44.188Z,6.20
2019-04-13T07:11:21.502Z,5.47
2019-04-13T07:13:57.105Z,5.60
2019-04-13T07:16:29.304Z,6.30
2019-04-13T07:18:58.342Z,6.63
2019-04-13T07:21:27.298Z,5.73
2019-04-13T07:23:58.125Z,5.72
2019-04-13T07:26:26.878Z,5.43
2019-04-13T07:28:55.883Z,5.90
2019-04-13T07:31:24.918Z,5.90
2019-04-13T07:33:53.934Z,5.87
2019-04-13T07:36:22.914Z,6.10
2019-04-13T07:38:51.735Z,5.50
2019-04-13T07:41:20.797Z,5.33
2019-04-13T07:43:49.694Z,5.15
2019-04-13T07:46:56.354Z,5.03
2019-04-13T07:49:47.851Z,4.90
2019-04-13T07:52:29.735Z,4.20
2019-04-13T07:54:58.759Z,4.72
2019-04-13T07:57:28.134Z,4.57
2019-04-13T07:59:57.478Z,5.40
2019-04-13T08:02:26.317Z,4.73
2019-04-13T08:04:55.230Z,4.80
2019-04-13T08:07:24.111Z,4.97
2019-04-13T08:09:53.432Z,4.62
2019-04-13T08:12:22.422Z,5.73
2019-04-13T08:14:51.758Z,5.28
2019-04-13T08:17:30.492Z,4.63
2019-04-13T08:20:21.343Z,5.60
2019-04-13T08:22:50.191Z,5.10
2019-04-13T08:25:19.145Z,5.30
2019-04-13T08:27:48.454Z,4.97
2019-04-13T08:30:17.807Z,5.37
2019-04-13T08:32:47.001Z,5.92
2019-04-13T08:35:16.115Z,4.83
2019-04-13T08:37:52.829Z,5.17
2019-04-13T08:40:16.174Z,4.25
2019-04-13T08:42:45.114Z,4.75
2019-04-13T08:45:14.162Z,4.67
2019-04-13T08:47:43.130Z,4.28
2019-04-13T08:50:12.152Z,3.98
2019-04-13T08:52:41.042Z,4.25
2019-04-13T08:55:10.275Z,4.70
2019-04-13T08:57:39.334Z,4.00
2019-04-13T09:00:09.198Z,3.80
2019-04-13T09:02:38.258Z,3.87
2019-04-13T09:05:08.240Z,3.75
2019-04-13T09:07:39.270Z,3.20
2019-04-13T09:10:09.483Z,3.40
2019-04-13T09:12:38.937Z,3.20
2019-04-13T09:15:08.597Z,3.50
2019-04-13T09:17:55.129Z,3.30
2019-04-13T09:20:30.261Z,3.87
2019-04-13T09:23:06.747Z,3.62
2019-04-13T09:25:36.026Z,2.87
2019-04-13T09:28:05.142Z,3.72
2019-04-13T09:30:36.474Z,3.33
2019-04-13T09:33:05.495Z,3.50
2019-04-13T09:35:34.899Z,3.70
2019-04-13T09:38:06.385Z,3.77
2019-04-13T09:40:34.958Z,3.50
2019-04-13T09:43:05.491Z,3.20
2019-04-13T09:45:35.083Z,3.53
2019-04-13T09:48:04.186Z,3.15
2019-04-13T09:50:36.646Z,3.83
2019-04-13T09:53:03.686Z,3.37
2019-04-13T09:55:32.746Z,3.70
2019-04-13T09:58:01.702Z,3.47
2019-04-13T10:00:30.720Z,3.35
2019-04-13T10:03:01.018Z,4.35
2019-04-13T10:05:30.386Z,4.13
2019-04-13T10:07:59.450Z,3.93
2019-04-13T10:10:28.319Z,3.70
2019-04-13T10:13:17.545Z,3.70
2019-04-13T10:16:07.950Z,3.87
2019-04-13T10:18:46.831Z,3.90
2019-04-13T10:21:15.787Z,3.93
2019-04-13T10:23:44.678Z,3.83
2019-04-13T10:26:15.968Z,4.57
2019-04-13T10:28:45.503Z,3.53
2019-04-13T10:31:15.051Z,4.07
2019-04-13T10:33:44.440Z,4.90
2019-04-13T10:36:13.674Z,4.50
2019-04-13T10:38:42.734Z,3.70
2019-04-13T10:41:11.585Z,3.80
2019-04-13T10:43:40.566Z,4.27
2019-04-13T10:46:40.894Z,4.37
2019-04-13T10:49:25.962Z,3.80
2019-04-13T10:52:00.449Z,3.53
2019-04-13T10:54:29.338Z,3.57
2019-04-13T10:56:59.620Z,3.40
2019-04-13T10:59:28.897Z,3.20
2019-04-13T11:01:57.710Z,3.33
2019-04-13T11:04:26.562Z,3.50
2019-04-13T11:06:55.492Z,3.27
2019-04-13T11:09:28.386Z,3.20
2019-04-13T11:11:54.995Z,3.07
2019-04-13T11:14:23.918Z,3.07
2019-04-13T11:16:58.081Z,3.13
2019-04-13T11:19:23.808Z,3.30
2019-04-13T11:21:52.714Z,3.40
2019-04-13T11:24:21.813Z,3.70
2019-04-13T11:26:51.688Z,3.50
2019-04-13T11:29:21.201Z,3.33
2019-04-13T11:31:54.745Z,3.90
2019-04-13T11:34:21.129Z,3.83
2019-04-13T11:36:50.094Z,4.00
2019-04-13T11:39:18.930Z,3.70
2019-04-13T11:42:03.510Z,3.40
2019-04-13T11:44:51.545Z,3.23
2019-04-13T11:47:38.678Z,4.07
2019-04-13T11:50:09.319Z,3.37
2019-04-13T11:52:38.220Z,4.30
2019-04-13T11:55:07.514Z,3.70
2019-04-13T11:57:36.357Z,3.53
2019-04-13T12:00:07.759Z,3.67
2019-04-13T12:02:41.955Z,2.90
2019-04-13T12:05:42.134Z,3.13
2019-04-13T12:08:31.418Z,3.57
2019-04-13T12:11:24.042Z,4.00
2019-04-13T12:14:00.344Z,4.10
2019-04-13T12:16:41.444Z,3.70
2019-04-13T12:19:23.716Z,4.67
2019-04-13T12:21:57.482Z,4.80
2019-04-13T12:24:28.799Z,4.20
2019-04-13T12:26:57.760Z,4.30
2019-04-13T12:29:26.947Z,4.17
2019-04-13T12:31:56.605Z,4.63
2019-04-13T12:34:25.716Z,3.55
2019-04-13T12:36:54.811Z,4.07
2019-04-13T12:39:24.059Z,3.50
2019-04-13T12:42:11.568Z,3.80
2019-04-13T12:44:40.547Z,3.90
2019-04-13T12:47:12.588Z,3.75
2019-04-13T12:49:41.741Z,4.35
2019-04-13T12:52:10.652Z,4.43
2019-04-13T12:54:39.866Z,4.10
2019-04-13T12:57:08.719Z,4.33
2019-04-13T12:59:38.103Z,4.12
2019-04-13T13:02:32.802Z,3.80
2019-04-13T13:05:19.055Z,3.87
2019-04-13T13:07:47.962Z,4.05
2019-04-13T13:10:16.964Z,3.77
2019-04-13T13:12:46.467Z,4.00
2019-04-13T13:15:15.758Z,3.80
2019-04-13T13:17:44.846Z,3.37
2019-04-13T13:20:16.549Z,3.37
2019-04-13T13:22:45.226Z,3.80
2019-04-13T13:25:14.700Z,4.40
2019-04-13T13:27:44.017Z,4.92
2019-04-13T13:30:13.428Z,4.55
2019-04-13T13:32:42.421Z,4.20
2019-04-13T13:35:11.358Z,4.60
2019-04-13T13:37:40.180Z,4.78
2019-04-13T13:40:09.401Z,5.00
2019-04-13T13:42:39.235Z,4.78
2019-04-13T13:45:08.352Z,4.70
2019-04-13T13:47:37.607Z,5.15
2019-04-13T13:50:07.999Z,4.58
2019-04-13T13:52:38.125Z,5.55
2019-04-13T13:55:07.875Z,4.15
2019-04-13T13:57:38.764Z,6.10
2019-04-13T14:00:11.869Z,5.15
2019-04-13T14:02:41.259Z,5.50
2019-04-13T14:05:10.597Z,5.75
2019-04-13T14:07:39.437Z,5.58
2019-04-13T14:10:15.131Z,5.80
2019-04-13T14:12:44.491Z,5.20
2019-04-13T14:15:14.371Z,4.90
2019-04-13T14:17:43.402Z,4.58
2019-04-13T14:20:13.136Z,3.95
2019-04-13T14:22:42.030Z,4.47
2019-04-13T14:25:11.322Z,3.77
2019-04-13T14:27:40.272Z,4.10
2019-04-13T14:30:09.714Z,3.90
2019-04-13T14:32:38.782Z,4.58
2019-04-13T14:35:07.906Z,4.22
2019-04-13T14:37:36.861Z,4.00
2019-04-13T14:40:06.691Z,4.70
2019-04-13T14:42:35.999Z,5.12
2019-04-13T14:45:06.746Z,4.60
2019-04-13T14:47:36.583Z,4.33
2019-04-13T14:50:06.881Z,3.80
2019-04-13T14:52:36.005Z,3.50
2019-04-13T14:55:05.793Z,4.10
2019-04-13T14:57:38.610Z,3.90
2019-04-13T15:00:07.173Z,3.52
2019-04-13T15:02:36.006Z,3.25
2019-04-13T15:05:05.983Z,4.08
2019-04-13T15:07:34.914Z,4.00
2019-04-13T15:10:04.335Z,3.77
2019-04-13T15:12:36.674Z,3.83
2019-04-13T15:15:05.006Z,4.28
2019-04-13T15:17:39.793Z,4.40
2019-04-13T15:20:14.885Z,3.50
2019-04-13T15:22:39.737Z,3.93
2019-04-13T15:25:10.144Z,3.87
2019-04-13T15:27:41.626Z,4.00
2019-04-13T15:30:12.786Z,4.45
2019-04-13T15:32:40.757Z,5.10
2019-04-13T15:35:13.690Z,4.72
2019-04-13T15:37:45.553Z,3.98
2019-04-13T15:40:15.153Z,4.47
2019-04-13T15:42:52.998Z,4.05
2019-04-13T15:45:14.442Z,3.77
2019-04-13T15:47:44.600Z,3.90
2019-04-13T15:50:16.578Z,3.87
2019-04-13T15:52:44.774Z,4.03
2019-04-13T15:55:14.294Z,3.95
2019-04-13T15:57:43.295Z,4.12
2019-04-13T16:00:12.806Z,3.95
2019-04-13T16:02:42.839Z,3.85
2019-04-13T16:05:12.116Z,3.58
2019-04-13T16:07:41.228Z,3.77
2019-04-13T16:10:38.995Z,3.70
2019-04-13T16:13:10.817Z,3.65
2019-04-13T16:15:40.362Z,3.22
2019-04-13T16:18:10.851Z,3.75
2019-04-13T16:20:40.134Z,3.73
2019-04-13T16:23:09.427Z,3.65
2019-04-13T16:25:38.571Z,3.73
2019-04-13T16:28:39.404Z,3.62
2019-04-13T16:31:37.484Z,4.30
2019-04-13T16:34:32.309Z,4.15
2019-04-13T16:37:11.220Z,3.63
2019-04-13T16:39:41.189Z,3.30
2019-04-13T16:42:17.582Z,4.10
2019-04-13T16:45:19.057Z,3.52
2019-04-13T16:48:10.166Z,4.12
2019-04-13T16:50:58.143Z,4.07
2019-04-13T16:53:45.148Z,4.00
2019-04-13T16:56:23.036Z,4.00
2019-04-13T16:59:04.465Z,4.45
2019-04-13T17:01:52.586Z,4.17
2019-04-13T17:04:44.407Z,4.40
2019-04-13T17:07:15.518Z,3.57
2019-04-13T17:09:45.656Z,3.83
2019-04-13T17:12:23.775Z,3.72
2019-04-13T17:14:45.602Z,3.80
2019-04-13T17:17:15.775Z,3.63
2019-04-13T17:20:03.846Z,3.70
2019-04-13T17:22:44.258Z,3.83
2019-04-13T17:25:26.926Z,3.50
2019-04-13T17:28:14.044Z,3.65
2019-04-13T17:30:54.587Z,4.00
2019-04-13T17:33:49.002Z,4.17
2019-04-13T17:36:19.847Z,3.90
2019-04-13T17:38:49.963Z,4.35
2019-04-13T17:41:44.745Z,4.17
2019-04-13T17:44:22.176Z,4.17
2019-04-13T17:47:10.370Z,4.53
2019-04-13T17:50:04.346Z,5.22
2019-04-13T17:52:55.255Z,4.70
2019-04-13T17:55:42.157Z,5.10
2019-04-13T17:58:29.698Z,5.47
2019-04-13T18:01:21.041Z,6.57
2019-04-13T18:04:21.578Z,5.40
2019-04-13T18:07:05.257Z,5.83
2019-04-13T18:09:50.824Z,5.33
2019-04-13T18:12:38.245Z,5.40
2019-04-13T18:15:09.489Z,4.85
2019-04-13T18:17:53.055Z,4.85
2019-04-13T18:20:23.467Z,5.10
2019-04-13T18:22:53.821Z,5.53
2019-04-13T18:25:33.483Z,5.97
2019-04-13T18:27:54.323Z,5.67
2019-04-13T18:30:32.117Z,5.67
2019-04-13T18:32:55.293Z,5.10
2019-04-13T18:35:25.410Z,5.20
2019-04-13T18:37:55.906Z,6.05
2019-04-13T18:40:24.972Z,4.45
2019-04-13T18:43:04.903Z,4.60
2019-04-13T18:45:26.456Z,4.92
2019-04-13T18:47:55.692Z,5.17
2019-04-13T18:50:24.736Z,4.80
2019-04-13T18:52:55.179Z,4.80
2019-04-13T18:55:24.473Z,4.70
2019-04-13T18:57:54.671Z,4.62
2019-04-13T19:00:23.801Z,4.53
2019-04-13T19:02:52.834Z,4.30
2019-04-13T19:05:21.798Z,4.47
2019-04-13T19:07:50.782Z,4.25
2019-04-13T19:10:19.765Z,4.50
2019-04-13T19:12:48.657Z,4.95
2019-04-13T19:15:17.689Z,4.75
2019-04-13T19:17:46.758Z,4.58
2019-04-13T19:20:16.031Z,4.60
2019-04-13T19:22:44.908Z,4.83
2019-04-13T19:25:14.855Z,5.15
2019-04-13T19:27:44.275Z,4.65
2019-04-13T19:30:13.467Z,4.97
2019-04-13T19:32:42.310Z,4.65
2019-04-13T19:35:11.868Z,4.65
2019-04-13T19:37:41.019Z,5.12
2019-04-13T19:40:10.121Z,4.85
2019-04-13T19:42:39.378Z,5.00
2019-04-13T19:45:08.902Z,5.10
2019-04-13T19:47:37.878Z,5.10
2019-04-13T19:50:07.821Z,5.10
2019-04-13T19:52:47.870Z,5.67
2019-04-13T19:55:17.174Z,5.53
2019-04-13T19:57:45.998Z,5.00
2019-04-13T20:00:22.469Z,6.15
2019-04-13T20:02:51.724Z,5.55
2019-04-13T20:05:20.710Z,6.33
2019-04-13T20:07:49.594Z,6.60
2019-04-13T20:10:18.545Z,6.58
2019-04-13T20:12:47.511Z,6.03
2019-04-13T20:15:16.551Z,6.35
2019-04-13T20:17:45.502Z,5.90
2019-04-13T20:20:14.812Z,6.85
2019-04-13T20:22:43.930Z,6.35
2019-04-13T20:25:13.581Z,6.80
2019-04-13T20:27:43.461Z,6.62
2019-04-13T20:30:13.182Z,6.70
2019-04-13T20:32:42.815Z,6.12
2019-04-13T20:35:12.707Z,7.47
2019-04-13T20:37:42.596Z,6.78
2019-04-13T20:40:23.265Z,6.60
2019-04-13T20:42:52.637Z,6.55
2019-04-13T20:45:22.243Z,7.58
2019-04-13T20:47:52.233Z,6.80
2019-04-13T20:50:21.282Z,6.87
2019-04-13T20:52:50.234Z,6.50
2019-04-13T20:55:19.836Z,7.58
2019-04-13T20:57:50.084Z,7.62
2019-04-13T21:00:20.281Z,7.28
2019-04-13T21:02:50.420Z,7.95
2019-04-13T21:05:19.552Z,8.70
2019-04-13T21:07:48.951Z,8.30
2019-04-13T21:10:18.311Z,8.25
2019-04-13T21:12:47.264Z,8.10
2019-04-13T21:15:16.314Z,7.72
2019-04-13T21:17:46.320Z,7.85
2019-04-13T21:20:16.499Z,7.28
2019-04-13T21:22:46.434Z,8.30
2019-04-13T21:25:16.285Z,7.47
2019-04-13T21:27:46.618Z,7.97
2019-04-13T21:30:16.454Z,9.00
2019-04-13T21:32:46.498Z,8.95
2019-04-13T21:35:16.491Z,8.73
2019-04-13T21:37:46.521Z,9.45
2019-04-13T21:40:16.561Z,8.65
2019-04-13T21:42:45.568Z,8.58
2019-04-13T21:45:14.697Z,8.98
2019-04-13T21:47:44.849Z,9.08
2019-04-13T21:50:30.558Z,9.18
2019-04-13T21:53:04.910Z,8.98
2019-04-13T21:55:35.475Z,8.87
2019-04-13T21:58:08.041Z,9.28
2019-04-13T22:00:53.088Z,9.88
2019-04-13T22:03:23.042Z,9.23
2019-04-13T22:05:52.871Z,10.70
2019-04-13T22:08:23.017Z,9.58
2019-04-13T22:10:52.978Z,10.40
2019-04-13T22:13:22.786Z,9.80
2019-04-13T22:15:52.918Z,9.60
2019-04-13T22:18:21.885Z,9.75
2019-04-13T22:20:52.042Z,9.30
2019-04-13T22:23:21.497Z,9.75
2019-04-13T22:25:51.536Z,9.43
2019-04-13T22:28:23.600Z,9.43
2019-04-13T22:31:22.011Z,10.43
2019-04-13T22:33:51.076Z,9.43
2019-04-13T22:36:26.759Z,10.17
2019-04-13T22:38:56.611Z,9.83
2019-04-13T22:41:26.688Z,10.10
2019-04-13T22:43:56.694Z,9.95
2019-04-13T22:46:26.054Z,10.80
2019-04-13T22:49:01.727Z,10.95
2019-04-13T22:51:48.891Z,10.57
2019-04-13T22:54:43.346Z,9.70
2019-04-13T22:57:30.483Z,11.43
2019-04-13T22:59:59.842Z,10.95
2019-04-13T23:02:36.373Z,10.67
2019-04-13T23:05:06.939Z,10.32
2019-04-13T23:07:36.844Z,10.13
2019-04-13T23:10:07.047Z,10.55
2019-04-13T23:12:37.465Z,10.08
2019-04-13T23:15:16.094Z,10.18
2019-04-13T23:17:39.823Z,10.15
2019-04-13T23:20:10.447Z,10.23
2019-04-13T23:22:39.406Z,9.85
2019-04-13T23:25:09.299Z,10.35
2019-04-13T23:27:39.369Z,9.55
2019-04-13T23:30:09.461Z,10.53
2019-04-13T23:32:38.555Z,10.13
2019-04-13T23:35:08.361Z,10.20
2019-04-13T23:37:38.574Z,10.05
2019-04-13T23:40:09.314Z,10.10
2019-04-13T23:42:38.375Z,10.40
2019-04-13T23:45:17.205Z,10.95
2019-04-13T23:47:40.908Z,10.55
2019-04-13T23:50:11.061Z,10.43
2019-04-13T23:52:41.484Z,10.25
2019-04-13T23:55:11.838Z,9.90
2019-04-13T23:57:59.805Z,10.45
